Thursday, September 20, 2018, 8:56 AM EDT
Back to Local

KVAY, Mt Holly South Jersey Rgnl

Location: Medford, NJ, United States Lat: 39.933
Local Time: 8:56 AM EDT (12:56 GMT) Lon: -74.833
Time Zone: US/Eastern Elev: 52 ft

Show me the last for .
Show Decoded

2018-09-20 07:54 METAR KVAY 201154Z AUTO 00000KT 10SM OVC024 19/18 A3017 RMK AO2 SLP214 70001
                 T01890178 10206 20189 51026 =
2018-09-20 06:54 METAR KVAY 201054Z AUTO 00000KT 10SM OVC017 19/18 A3015 RMK AO2 SLP210 T01890178
                 =
2018-09-20 05:54 METAR KVAY 200954Z AUTO 11004KT 10SM OVC015 19/18 A3011 RMK AO2 SLP195 T01940178
                 =
2018-09-20 04:54 METAR KVAY 200854Z AUTO VRB03KT 10SM OVC015 20/18 A3009 RMK AO2 SLP188 T02000183
                 53007 =
2018-09-20 04:44 METAR KVAY 200844Z AUTO 11004KT 10SM OVC015 20/19 A3009 RMK AO2 T02000189 =
2018-09-20 04:36 METAR KVAY 200836Z AUTO 11005KT 10SM BKN013 OVC018 20/19 A3008 RMK AO2 T02000189
                 =
2018-09-20 03:54 METAR KVAY 200754Z AUTO 11003KT 10SM OVC017 20/19 A3008 RMK AO2 SLP185 T02000189
                 =
2018-09-20 02:54 METAR KVAY 200654Z AUTO 10003KT 10SM BKN015 BKN029 BKN050 20/20 A3007 RMK AO2
                 SLP180 T02000200 =
2018-09-20 01:54 METAR KVAY 200554Z AUTO 00000KT 10SM FEW015 BKN023 OVC050 21/20 A3007 RMK AO2
                 RAB23E39 SLP181 P0001 60001 T02060200 10222 20206 53005 =
2018-09-20 00:54 METAR KVAY 200454Z AUTO 12003KT 10SM OVC016 21/21 A3006 RMK AO2 SLP178 T02110206
                 402890172 =
2018-09-20 00:52 METAR KVAY 200452Z AUTO 11003KT 10SM OVC016 21/21 A3006 RMK AO2 =
2018-09-20 00:42 METAR KVAY 200442Z AUTO VRB03KT 10SM OVC014 21/21 A3006 RMK AO2 T02110206 =
2018-09-20 00:03 METAR KVAY 200403Z AUTO 00000KT 10SM FEW009 OVC015 21/21 A3005 RMK AO2 T02110206
                 =
2018-09-19 23:54 METAR KVAY 200354Z AUTO 00000KT 10SM FEW009 OVC014 21/21 A3005 RMK AO2 SLP176
                 T02110206 =
2018-09-19 22:54 METAR KVAY 200254Z AUTO 00000KT 10SM OVC013 21/21 A3004 RMK AO2 SLP171 T02060206
                 51024 =
2018-09-19 22:10 METAR KVAY 200210Z AUTO 00000KT 10SM BKN012 21/21 A3003 RMK AO2 T02060206 =
2018-09-19 21:54 METAR KVAY 200154Z AUTO 00000KT 9SM FEW010 21/21 A3002 RMK AO2 SLP166 T02060206
                 =
2018-09-19 20:54 METAR KVAY 200054Z AUTO 00000KT 10SM CLR 22/21 A3000 RMK AO2 SLP157 T02170206 =
2018-09-19 19:54 METAR KVAY 192354Z AUTO 12004KT 10SM FEW045 22/21 A2997 RMK AO2 SLP146 T02220206
                 10289 20217 53020 =
2018-09-19 18:54 METAR KVAY 192254Z AUTO 00000KT 10SM CLR 24/21 A2994 RMK AO2 SLP137 T02390206 =
2018-09-19 17:54 METAR KVAY 192154Z AUTO 36004KT 10SM CLR 27/19 A2993 RMK AO2 SLP135 T02670189 =
2018-09-19 16:54 METAR KVAY 192054Z AUTO 01006KT 10SM FEW042 28/19 A2991 RMK AO2 SLP126 T02830194
                 55001 =
2018-09-19 15:54 METAR KVAY 191954Z AUTO 03004KT 10SM CLR 28/19 A2989 RMK AO2 SLP121 T02780194 =
2018-09-19 14:54 METAR KVAY 191854Z AUTO 01007KT 10SM CLR 29/19 A2990 RMK AO2 SLP123 T02890194 =
2018-09-19 13:54 METAR KVAY 191754Z AUTO VRB05KT 10SM BKN038 BKN048 28/20 A2991 RMK AO2 SLP127
                 T02780200 10283 20200 50002 =
2018-09-19 12:54 METAR KVAY 191654Z AUTO 04006KT 10SM FEW032 SCT039 27/21 A2991 RMK AO2 SLP128
                 T02720206 =
2018-09-19 11:54 METAR KVAY 191554Z AUTO 01008KT 340V050 10SM SCT026 BKN035 27/21 A2991 RMK AO2
                 SLP127 T02670206 =
2018-09-19 10:54 METAR KVAY 191454Z AUTO 02008KT 10SM FEW022 SCT029 26/21 A2990 RMK AO2 SLP124
                 T02560206 51014 =
2018-09-19 09:54 METAR KVAY 191354Z AUTO 36009KT 10SM CLR 24/20 A2989 RMK AO2 SLP122 T02440200 =

Support USWX by starting your Amazon purchase here.